sensor_id;sensor_type;location;lat;lon;timestamp;P1;durP1;ratioP1;P2;durP2;ratioP2
66593;SDS011;53450;42.584;23.366;2024-02-21T00:00:01;12.10;;;6.53;;
66593;SDS011;53450;42.584;23.366;2024-02-21T00:02:29;10.53;;;7.03;;
66593;SDS011;53450;42.584;23.366;2024-02-21T00:04:54;15.03;;;7.37;;
66593;SDS011;53450;42.584;23.366;2024-02-21T00:07:23;12.17;;;6.70;;
66593;SDS011;53450;42.584;23.366;2024-02-21T00:09:48;7.57;;;5.33;;
66593;SDS011;53450;42.584;23.366;2024-02-21T00:12:14;7.70;;;5.30;;
66593;SDS011;53450;42.584;23.366;2024-02-21T00:14:42;7.77;;;5.30;;
66593;SDS011;53450;42.584;23.366;2024-02-21T00:17:08;7.80;;;5.97;;
66593;SDS011;53450;42.584;23.366;2024-02-21T00:19:34;6.93;;;5.50;;
66593;SDS011;53450;42.584;23.366;2024-02-21T00:22:00;6.07;;;4.67;;
66593;SDS011;53450;42.584;23.366;2024-02-21T00:24:25;5.07;;;4.13;;
66593;SDS011;53450;42.584;23.366;2024-02-21T00:26:51;4.93;;;3.50;;
66593;SDS011;53450;42.584;23.366;2024-02-21T00:29:18;6.53;;;4.40;;
66593;SDS011;53450;42.584;23.366;2024-02-21T00:31:47;5.60;;;3.90;;
66593;SDS011;53450;42.584;23.366;2024-02-21T00:34:14;5.97;;;4.77;;
66593;SDS011;53450;42.584;23.366;2024-02-21T00:36:39;4.43;;;3.63;;
66593;SDS011;53450;42.584;23.366;2024-02-21T00:39:05;5.90;;;4.53;;
66593;SDS011;53450;42.584;23.366;2024-02-21T00:41:31;5.37;;;4.73;;
66593;SDS011;53450;42.584;23.366;2024-02-21T00:43:58;8.80;;;5.33;;
66593;SDS011;53450;42.584;23.366;2024-02-21T00:46:26;7.37;;;4.53;;
66593;SDS011;53450;42.584;23.366;2024-02-21T00:48:52;7.77;;;5.37;;
66593;SDS011;53450;42.584;23.366;2024-02-21T00:51:18;6.00;;;5.03;;
66593;SDS011;53450;42.584;23.366;2024-02-21T00:53:43;6.20;;;5.03;;
66593;SDS011;53450;42.584;23.366;2024-02-21T00:56:09;5.13;;;4.50;;
66593;SDS011;53450;42.584;23.366;2024-02-21T00:58:35;5.27;;;4.67;;
66593;SDS011;53450;42.584;23.366;2024-02-21T01:01:01;9.57;;;7.23;;
66593;SDS011;53450;42.584;23.366;2024-02-21T01:03:27;9.83;;;7.97;;
66593;SDS011;53450;42.584;23.366;2024-02-21T01:05:55;8.63;;;5.83;;
66593;SDS011;53450;42.584;23.366;2024-02-21T01:08:21;14.33;;;9.00;;
66593;SDS011;53450;42.584;23.366;2024-02-21T01:10:46;7.13;;;5.63;;
66593;SDS011;53450;42.584;23.366;2024-02-21T01:13:12;19.70;;;9.87;;
66593;SDS011;53450;42.584;23.366;2024-02-21T01:15:38;10.67;;;6.93;;
66593;SDS011;53450;42.584;23.366;2024-02-21T01:18:04;10.27;;;7.53;;
66593;SDS011;53450;42.584;23.366;2024-02-21T01:20:30;9.30;;;7.30;;
66593;SDS011;53450;42.584;23.366;2024-02-21T01:22:55;7.80;;;6.83;;
66593;SDS011;53450;42.584;23.366;2024-02-21T01:25:21;10.20;;;7.40;;
66593;SDS011;53450;42.584;23.366;2024-02-21T01:27:47;11.27;;;7.47;;
66593;SDS011;53450;42.584;23.366;2024-02-21T01:30:12;11.43;;;7.87;;
66593;SDS011;53450;42.584;23.366;2024-02-21T01:32:38;10.23;;;7.23;;
66593;SDS011;53450;42.584;23.366;2024-02-21T01:35:04;8.17;;;6.63;;
66593;SDS011;53450;42.584;23.366;2024-02-21T01:37:29;8.73;;;7.33;;
66593;SDS011;53450;42.584;23.366;2024-02-21T01:39:55;10.13;;;6.90;;
66593;SDS011;53450;42.584;23.366;2024-02-21T01:42:21;9.33;;;7.17;;
66593;SDS011;53450;42.584;23.366;2024-02-21T01:44:49;11.10;;;7.87;;
66593;SDS011;53450;42.584;23.366;2024-02-21T01:47:14;9.47;;;7.73;;
66593;SDS011;53450;42.584;23.366;2024-02-21T01:49:40;8.80;;;6.87;;
66593;SDS011;53450;42.584;23.366;2024-02-21T01:52:06;11.53;;;7.17;;
66593;SDS011;53450;42.584;23.366;2024-02-21T01:54:33;9.17;;;6.63;;
66593;SDS011;53450;42.584;23.366;2024-02-21T01:56:59;9.50;;;7.03;;
66593;SDS011;53450;42.584;23.366;2024-02-21T01:59:27;8.50;;;5.93;;
66593;SDS011;53450;42.584;23.366;2024-02-21T02:01:53;10.90;;;6.87;;
66593;SDS011;53450;42.584;23.366;2024-02-21T02:04:20;8.57;;;6.33;;
66593;SDS011;53450;42.584;23.366;2024-02-21T02:06:46;11.23;;;7.23;;
66593;SDS011;53450;42.584;23.366;2024-02-21T02:09:12;9.00;;;6.50;;
66593;SDS011;53450;42.584;23.366;2024-02-21T02:11:38;9.47;;;7.00;;
66593;SDS011;53450;42.584;23.366;2024-02-21T02:14:05;9.20;;;7.40;;
66593;SDS011;53450;42.584;23.366;2024-02-21T02:16:30;9.73;;;7.13;;
66593;SDS011;53450;42.584;23.366;2024-02-21T02:18:56;12.10;;;8.17;;
66593;SDS011;53450;42.584;23.366;2024-02-21T02:23:58;11.37;;;7.77;;
66593;SDS011;53450;42.584;23.366;2024-02-21T02:26:24;10.37;;;7.83;;
66593;SDS011;53450;42.584;23.366;2024-02-21T02:28:50;11.97;;;8.43;;
66593;SDS011;53450;42.584;23.366;2024-02-21T02:31:15;12.70;;;8.30;;
66593;SDS011;53450;42.584;23.366;2024-02-21T02:33:44;11.93;;;7.83;;
66593;SDS011;53450;42.584;23.366;2024-02-21T02:36:10;12.67;;;7.40;;
66593;SDS011;53450;42.584;23.366;2024-02-21T02:38:35;11.70;;;8.33;;
66593;SDS011;53450;42.584;23.366;2024-02-21T02:41:02;17.50;;;11.30;;
66593;SDS011;53450;42.584;23.366;2024-02-21T02:43:28;14.80;;;10.60;;
66593;SDS011;53450;42.584;23.366;2024-02-21T02:45:56;15.03;;;10.93;;
66593;SDS011;53450;42.584;23.366;2024-02-21T02:48:22;19.87;;;10.83;;
66593;SDS011;53450;42.584;23.366;2024-02-21T02:50:47;13.27;;;9.47;;
66593;SDS011;53450;42.584;23.366;2024-02-21T02:53:15;12.47;;;9.30;;
66593;SDS011;53450;42.584;23.366;2024-02-21T02:55:40;14.47;;;9.03;;
66593;SDS011;53450;42.584;23.366;2024-02-21T02:58:06;12.47;;;8.70;;
66593;SDS011;53450;42.584;23.366;2024-02-21T03:00:32;12.90;;;9.27;;
66593;SDS011;53450;42.584;23.366;2024-02-21T03:03:01;12.97;;;8.77;;
66593;SDS011;53450;42.584;23.366;2024-02-21T03:05:30;10.07;;;7.63;;
66593;SDS011;53450;42.584;23.366;2024-02-21T03:07:56;11.37;;;8.00;;
66593;SDS011;53450;42.584;23.366;2024-02-21T03:10:21;12.67;;;8.50;;
66593;SDS011;53450;42.584;23.366;2024-02-21T03:12:47;13.53;;;8.37;;
66593;SDS011;53450;42.584;23.366;2024-02-21T03:15:13;13.77;;;8.83;;
66593;SDS011;53450;42.584;23.366;2024-02-21T03:17:39;13.90;;;9.70;;
66593;SDS011;53450;42.584;23.366;2024-02-21T03:20:05;19.43;;;11.67;;
66593;SDS011;53450;42.584;23.366;2024-02-21T03:22:35;20.07;;;12.70;;
66593;SDS011;53450;42.584;23.366;2024-02-21T03:25:02;19.77;;;12.10;;
66593;SDS011;53450;42.584;23.366;2024-02-21T03:27:27;17.97;;;10.80;;
66593;SDS011;53450;42.584;23.366;2024-02-21T03:29:53;17.90;;;11.53;;
66593;SDS011;53450;42.584;23.366;2024-02-21T03:32:19;19.20;;;11.77;;
66593;SDS011;53450;42.584;23.366;2024-02-21T03:34:45;12.27;;;7.90;;
66593;SDS011;53450;42.584;23.366;2024-02-21T03:37:10;19.10;;;12.50;;
66593;SDS011;53450;42.584;23.366;2024-02-21T03:39:36;21.30;;;13.40;;
66593;SDS011;53450;42.584;23.366;2024-02-21T03:42:02;20.67;;;13.00;;
66593;SDS011;53450;42.584;23.366;2024-02-21T03:44:30;20.47;;;12.43;;
66593;SDS011;53450;42.584;23.366;2024-02-21T03:46:57;21.73;;;12.67;;
66593;SDS011;53450;42.584;23.366;2024-02-21T03:49:23;19.10;;;12.70;;
66593;SDS011;53450;42.584;23.366;2024-02-21T03:51:49;21.20;;;13.83;;
66593;SDS011;53450;42.584;23.366;2024-02-21T03:54:14;98.33;;;45.50;;
66593;SDS011;53450;42.584;23.366;2024-02-21T03:56:40;20.83;;;12.67;;
66593;SDS011;53450;42.584;23.366;2024-02-21T03:59:06;23.00;;;13.13;;
66593;SDS011;53450;42.584;23.366;2024-02-21T04:01:36;20.63;;;13.17;;
66593;SDS011;53450;42.584;23.366;2024-02-21T04:04:02;20.47;;;13.33;;
66593;SDS011;53450;42.584;23.366;2024-02-21T04:06:28;17.90;;;11.90;;
66593;SDS011;53450;42.584;23.366;2024-02-21T04:08:54;22.63;;;14.60;;
66593;SDS011;53450;42.584;23.366;2024-02-21T04:11:20;17.87;;;12.30;;
66593;SDS011;53450;42.584;23.366;2024-02-21T04:13:46;15.87;;;11.30;;
66593;SDS011;53450;42.584;23.366;2024-02-21T04:16:14;17.97;;;10.87;;
66593;SDS011;53450;42.584;23.366;2024-02-21T04:18:41;17.73;;;11.40;;
66593;SDS011;53450;42.584;23.366;2024-02-21T04:21:13;15.87;;;10.97;;
66593;SDS011;53450;42.584;23.366;2024-02-21T04:26:05;15.63;;;10.53;;
66593;SDS011;53450;42.584;23.366;2024-02-21T04:28:30;15.43;;;10.40;;
66593;SDS011;53450;42.584;23.366;2024-02-21T04:30:56;14.20;;;10.37;;
66593;SDS011;53450;42.584;23.366;2024-02-21T04:33:22;14.87;;;9.80;;
66593;SDS011;53450;42.584;23.366;2024-02-21T04:35:47;13.13;;;9.47;;
66593;SDS011;53450;42.584;23.366;2024-02-21T04:38:13;13.63;;;9.63;;
66593;SDS011;53450;42.584;23.366;2024-02-21T04:40:40;15.80;;;9.70;;
66593;SDS011;53450;42.584;23.366;2024-02-21T04:43:05;31.50;;;19.67;;
66593;SDS011;53450;42.584;23.366;2024-02-21T04:45:31;27.70;;;16.67;;
66593;SDS011;53450;42.584;23.366;2024-02-21T04:47:57;22.73;;;16.07;;
66593;SDS011;53450;42.584;23.366;2024-02-21T04:50:22;21.30;;;14.97;;
66593;SDS011;53450;42.584;23.366;2024-02-21T04:52:48;26.57;;;16.07;;
66593;SDS011;53450;42.584;23.366;2024-02-21T04:55:14;23.17;;;14.23;;
66593;SDS011;53450;42.584;23.366;2024-02-21T04:57:39;24.83;;;15.57;;
66593;SDS011;53450;42.584;23.366;2024-02-21T05:00:05;20.53;;;13.63;;
66593;SDS011;53450;42.584;23.366;2024-02-21T05:02:32;28.17;;;15.43;;
66593;SDS011;53450;42.584;23.366;2024-02-21T05:04:58;35.17;;;18.70;;
66593;SDS011;53450;42.584;23.366;2024-02-21T05:07:23;33.57;;;19.03;;
66593;SDS011;53450;42.584;23.366;2024-02-21T05:09:49;31.43;;;19.63;;
66593;SDS011;53450;42.584;23.366;2024-02-21T05:12:15;26.57;;;17.83;;
66593;SDS011;53450;42.584;23.366;2024-02-21T05:14:41;23.97;;;16.70;;
66593;SDS011;53450;42.584;23.366;2024-02-21T05:17:06;28.20;;;17.17;;
66593;SDS011;53450;42.584;23.366;2024-02-21T05:19:32;25.60;;;15.50;;
66593;SDS011;53450;42.584;23.366;2024-02-21T05:21:58;28.13;;;16.90;;
66593;SDS011;53450;42.584;23.366;2024-02-21T05:24:25;37.97;;;20.73;;
66593;SDS011;53450;42.584;23.366;2024-02-21T05:26:53;78.00;;;31.73;;
66593;SDS011;53450;42.584;23.366;2024-02-21T05:29:22;67.77;;;28.67;;
66593;SDS011;53450;42.584;23.366;2024-02-21T05:34:16;29.63;;;17.97;;
66593;SDS011;53450;42.584;23.366;2024-02-21T05:36:45;23.50;;;15.27;;
66593;SDS011;53450;42.584;23.366;2024-02-21T05:39:12;19.30;;;12.60;;
66593;SDS011;53450;42.584;23.366;2024-02-21T05:41:39;23.17;;;13.07;;
66593;SDS011;53450;42.584;23.366;2024-02-21T05:44:04;22.00;;;13.33;;
66593;SDS011;53450;42.584;23.366;2024-02-21T05:46:30;20.13;;;12.47;;
66593;SDS011;53450;42.584;23.366;2024-02-21T05:48:57;20.53;;;13.30;;
66593;SDS011;53450;42.584;23.366;2024-02-21T05:51:23;21.37;;;13.20;;
66593;SDS011;53450;42.584;23.366;2024-02-21T05:53:49;20.00;;;14.23;;
66593;SDS011;53450;42.584;23.366;2024-02-21T05:56:15;19.70;;;13.40;;
66593;SDS011;53450;42.584;23.366;2024-02-21T05:58:42;25.03;;;15.03;;
66593;SDS011;53450;42.584;23.366;2024-02-21T06:01:07;25.40;;;15.53;;
66593;SDS011;53450;42.584;23.366;2024-02-21T06:03:33;26.07;;;16.53;;
66593;SDS011;53450;42.584;23.366;2024-02-21T06:05:59;23.77;;;16.00;;
66593;SDS011;53450;42.584;23.366;2024-02-21T06:08:25;29.83;;;16.97;;
66593;SDS011;53450;42.584;23.366;2024-02-21T06:10:51;31.97;;;20.60;;
66593;SDS011;53450;42.584;23.366;2024-02-21T06:13:19;26.40;;;17.17;;
66593;SDS011;53450;42.584;23.366;2024-02-21T06:15:46;71.80;;;32.33;;
66593;SDS011;53450;42.584;23.366;2024-02-21T06:18:12;58.23;;;30.90;;
66593;SDS011;53450;42.584;23.366;2024-02-21T06:20:38;34.37;;;19.90;;
66593;SDS011;53450;42.584;23.366;2024-02-21T06:23:05;35.23;;;19.03;;
66593;SDS011;53450;42.584;23.366;2024-02-21T06:25:32;29.40;;;16.90;;
66593;SDS011;53450;42.584;23.366;2024-02-21T06:27:57;26.03;;;15.43;;
66593;SDS011;53450;42.584;23.366;2024-02-21T06:30:23;22.53;;;14.00;;
66593;SDS011;53450;42.584;23.366;2024-02-21T06:32:48;20.67;;;12.87;;
66593;SDS011;53450;42.584;23.366;2024-02-21T06:35:14;18.93;;;11.57;;
66593;SDS011;53450;42.584;23.366;2024-02-21T06:37:40;15.63;;;10.67;;
66593;SDS011;53450;42.584;23.366;2024-02-21T06:40:06;26.23;;;15.53;;
66593;SDS011;53450;42.584;23.366;2024-02-21T06:42:32;19.37;;;11.07;;
66593;SDS011;53450;42.584;23.366;2024-02-21T06:44:58;17.77;;;12.00;;
66593;SDS011;53450;42.584;23.366;2024-02-21T06:47:23;15.20;;;10.93;;
66593;SDS011;53450;42.584;23.366;2024-02-21T06:49:49;18.93;;;12.83;;
66593;SDS011;53450;42.584;23.366;2024-02-21T06:52:19;28.43;;;18.77;;
66593;SDS011;53450;42.584;23.366;2024-02-21T06:54:49;27.23;;;17.37;;
66593;SDS011;53450;42.584;23.366;2024-02-21T06:57:18;19.03;;;12.00;;
66593;SDS011;53450;42.584;23.366;2024-02-21T06:59:49;20.77;;;13.00;;
66593;SDS011;53450;42.584;23.366;2024-02-21T07:02:14;17.53;;;12.23;;
66593;SDS011;53450;42.584;23.366;2024-02-21T07:04:43;19.63;;;12.87;;
66593;SDS011;53450;42.584;23.366;2024-02-21T07:07:08;26.17;;;15.50;;
66593;SDS011;53450;42.584;23.366;2024-02-21T07:09:37;27.57;;;14.70;;
66593;SDS011;53450;42.584;23.366;2024-02-21T07:12:03;22.03;;;13.33;;
66593;SDS011;53450;42.584;23.366;2024-02-21T07:14:30;14.57;;;10.60;;
66593;SDS011;53450;42.584;23.366;2024-02-21T07:16:57;22.90;;;14.83;;
66593;SDS011;53450;42.584;23.366;2024-02-21T07:19:23;29.83;;;16.90;;
66593;SDS011;53450;42.584;23.366;2024-02-21T07:21:49;24.43;;;15.87;;
66593;SDS011;53450;42.584;23.366;2024-02-21T07:24:18;23.83;;;13.83;;
66593;SDS011;53450;42.584;23.366;2024-02-21T07:26:43;33.47;;;14.70;;
66593;SDS011;53450;42.584;23.366;2024-02-21T07:29:09;23.20;;;13.57;;
66593;SDS011;53450;42.584;23.366;2024-02-21T07:31:38;21.83;;;13.43;;
66593;SDS011;53450;42.584;23.366;2024-02-21T07:34:08;27.17;;;15.20;;
66593;SDS011;53450;42.584;23.366;2024-02-21T07:36:33;23.23;;;12.97;;
66593;SDS011;53450;42.584;23.366;2024-02-21T07:39:02;29.53;;;15.80;;
66593;SDS011;53450;42.584;23.366;2024-02-21T07:41:30;19.53;;;12.97;;
66593;SDS011;53450;42.584;23.366;2024-02-21T07:43:56;26.20;;;13.43;;
66593;SDS011;53450;42.584;23.366;2024-02-21T07:46:24;29.60;;;16.10;;
66593;SDS011;53450;42.584;23.366;2024-02-21T07:48:50;23.17;;;13.68;;
66593;SDS011;53450;42.584;23.366;2024-02-21T07:51:16;22.30;;;14.30;;
66593;SDS011;53450;42.584;23.366;2024-02-21T07:53:43;23.70;;;13.70;;
66593;SDS011;53450;42.584;23.366;2024-02-21T07:56:13;23.73;;;14.25;;
66593;SDS011;53450;42.584;23.366;2024-02-21T07:58:40;24.23;;;14.07;;
66593;SDS011;53450;42.584;23.366;2024-02-21T08:01:10;20.85;;;12.05;;
66593;SDS011;53450;42.584;23.366;2024-02-21T08:03:39;19.40;;;11.75;;
66593;SDS011;53450;42.584;23.366;2024-02-21T08:06:04;23.20;;;14.65;;
66593;SDS011;53450;42.584;23.366;2024-02-21T08:08:33;25.67;;;14.40;;
66593;SDS011;53450;42.584;23.366;2024-02-21T08:11:07;15.75;;;11.63;;
66593;SDS011;53450;42.584;23.366;2024-02-21T08:13:32;23.77;;;14.00;;
66593;SDS011;53450;42.584;23.366;2024-02-21T08:15:58;18.77;;;12.20;;
66593;SDS011;53450;42.584;23.366;2024-02-21T08:18:28;22.33;;;13.43;;
66593;SDS011;53450;42.584;23.366;2024-02-21T08:20:54;26.00;;;13.85;;
66593;SDS011;53450;42.584;23.366;2024-02-21T08:23:23;22.25;;;13.13;;
66593;SDS011;53450;42.584;23.366;2024-02-21T08:25:55;18.75;;;13.07;;
66593;SDS011;53450;42.584;23.366;2024-02-21T08:28:23;22.02;;;12.95;;
66593;SDS011;53450;42.584;23.366;2024-02-21T08:30:51;20.85;;;12.43;;
66593;SDS011;53450;42.584;23.366;2024-02-21T08:33:16;19.50;;;12.80;;
66593;SDS011;53450;42.584;23.366;2024-02-21T08:35:44;18.33;;;11.77;;
66593;SDS011;53450;42.584;23.366;2024-02-21T08:38:12;26.77;;;14.38;;
66593;SDS011;53450;42.584;23.366;2024-02-21T08:40:40;17.98;;;12.38;;
66593;SDS011;53450;42.584;23.366;2024-02-21T08:43:09;32.13;;;19.58;;
66593;SDS011;53450;42.584;23.366;2024-02-21T08:45:39;16.58;;;10.23;;
66593;SDS011;53450;42.584;23.366;2024-02-21T08:48:05;23.50;;;13.23;;
66593;SDS011;53450;42.584;23.366;2024-02-21T08:50:32;18.38;;;11.93;;
66593;SDS011;53450;42.584;23.366;2024-02-21T08:53:17;19.20;;;13.10;;
66593;SDS011;53450;42.584;23.366;2024-02-21T08:55:43;28.58;;;14.40;;
66593;SDS011;53450;42.584;23.366;2024-02-21T08:58:11;19.08;;;11.82;;
66593;SDS011;53450;42.584;23.366;2024-02-21T09:00:37;18.60;;;11.63;;
66593;SDS011;53450;42.584;23.366;2024-02-21T09:03:03;13.77;;;9.80;;
66593;SDS011;53450;42.584;23.366;2024-02-21T09:05:29;11.50;;;8.20;;
66593;SDS011;53450;42.584;23.366;2024-02-21T09:07:55;14.25;;;8.90;;
66593;SDS011;53450;42.584;23.366;2024-02-21T09:10:21;13.38;;;8.10;;
66593;SDS011;53450;42.584;23.366;2024-02-21T09:12:47;9.98;;;7.53;;
66593;SDS011;53450;42.584;23.366;2024-02-21T09:15:15;11.50;;;7.82;;
66593;SDS011;53450;42.584;23.366;2024-02-21T09:17:43;10.98;;;7.03;;
66593;SDS011;53450;42.584;23.366;2024-02-21T09:20:12;11.63;;;7.45;;
66593;SDS011;53450;42.584;23.366;2024-02-21T09:22:42;11.52;;;8.07;;
66593;SDS011;53450;42.584;23.366;2024-02-21T09:25:07;10.57;;;7.57;;
66593;SDS011;53450;42.584;23.366;2024-02-21T09:27:35;11.18;;;8.35;;
66593;SDS011;53450;42.584;23.366;2024-02-21T09:30:01;13.73;;;8.43;;
66593;SDS011;53450;42.584;23.366;2024-02-21T09:32:29;12.73;;;9.07;;
66593;SDS011;53450;42.584;23.366;2024-02-21T09:34:55;13.90;;;8.32;;
66593;SDS011;53450;42.584;23.366;2024-02-21T09:37:20;10.23;;;7.15;;
66593;SDS011;53450;42.584;23.366;2024-02-21T09:39:48;10.70;;;7.65;;
66593;SDS011;53450;42.584;23.366;2024-02-21T09:42:16;14.35;;;10.07;;
66593;SDS011;53450;42.584;23.366;2024-02-21T09:44:53;15.57;;;9.60;;
66593;SDS011;53450;42.584;23.366;2024-02-21T09:47:25;13.10;;;9.35;;
66593;SDS011;53450;42.584;23.366;2024-02-21T09:50:04;14.57;;;8.60;;
66593;SDS011;53450;42.584;23.366;2024-02-21T09:52:36;9.02;;;6.40;;
66593;SDS011;53450;42.584;23.366;2024-02-21T09:55:03;10.75;;;8.43;;
66593;SDS011;53450;42.584;23.366;2024-02-21T09:57:30;12.98;;;9.18;;
66593;SDS011;53450;42.584;23.366;2024-02-21T09:59:57;14.77;;;9.25;;
66593;SDS011;53450;42.584;23.366;2024-02-21T10:02:26;11.02;;;8.68;;
66593;SDS011;53450;42.584;23.366;2024-02-21T10:04:52;16.08;;;8.68;;
66593;SDS011;53450;42.584;23.366;2024-02-21T10:07:17;8.20;;;6.63;;
66593;SDS011;53450;42.584;23.366;2024-02-21T10:09:48;8.90;;;7.22;;
66593;SDS011;53450;42.584;23.366;2024-02-21T10:12:13;10.85;;;7.43;;
66593;SDS011;53450;42.584;23.366;2024-02-21T10:14:40;13.27;;;6.38;;
66593;SDS011;53450;42.584;23.366;2024-02-21T10:17:06;10.75;;;5.85;;
66593;SDS011;53450;42.584;23.366;2024-02-21T10:19:34;15.02;;;8.80;;
66593;SDS011;53450;42.584;23.366;2024-02-21T10:24:30;9.20;;;6.85;;
66593;SDS011;53450;42.584;23.366;2024-02-21T10:27:07;16.15;;;8.20;;
66593;SDS011;53450;42.584;23.366;2024-02-21T10:29:34;12.85;;;9.13;;
66593;SDS011;53450;42.584;23.366;2024-02-21T10:32:10;15.88;;;7.82;;
66593;SDS011;53450;42.584;23.366;2024-02-21T10:34:37;9.38;;;5.78;;
66593;SDS011;53450;42.584;23.366;2024-02-21T10:37:04;7.40;;;6.45;;
66593;SDS011;53450;42.584;23.366;2024-02-21T10:39:41;5.35;;;4.35;;
66593;SDS011;53450;42.584;23.366;2024-02-21T10:42:12;5.82;;;4.95;;
66593;SDS011;53450;42.584;23.366;2024-02-21T10:44:41;6.30;;;5.13;;
66593;SDS011;53450;42.584;23.366;2024-02-21T10:47:08;5.35;;;4.30;;
66593;SDS011;53450;42.584;23.366;2024-02-21T10:49:38;8.15;;;6.07;;
66593;SDS011;53450;42.584;23.366;2024-02-21T10:52:12;6.90;;;5.78;;
66593;SDS011;53450;42.584;23.366;2024-02-21T10:54:58;6.35;;;4.93;;
66593;SDS011;53450;42.584;23.366;2024-02-21T10:57:52;6.80;;;5.50;;
66593;SDS011;53450;42.584;23.366;2024-02-21T11:00:19;6.93;;;5.53;;
66593;SDS011;53450;42.584;23.366;2024-02-21T11:02:50;13.48;;;7.05;;
66593;SDS011;53450;42.584;23.366;2024-02-21T11:05:17;10.05;;;6.45;;
66593;SDS011;53450;42.584;23.366;2024-02-21T11:07:43;8.65;;;6.15;;
66593;SDS011;53450;42.584;23.366;2024-02-21T11:10:20;6.65;;;5.40;;
66593;SDS011;53450;42.584;23.366;2024-02-21T11:12:49;6.90;;;4.70;;
66593;SDS011;53450;42.584;23.366;2024-02-21T11:15:24;7.55;;;5.00;;
66593;SDS011;53450;42.584;23.366;2024-02-21T11:17:55;6.90;;;5.45;;
66593;SDS011;53450;42.584;23.366;2024-02-21T11:20:31;7.53;;;4.70;;
66593;SDS011;53450;42.584;23.366;2024-02-21T11:22:58;7.20;;;4.63;;
66593;SDS011;53450;42.584;23.366;2024-02-21T11:25:23;11.15;;;6.47;;
66593;SDS011;53450;42.584;23.366;2024-02-21T11:27:49;4.95;;;4.38;;
66593;SDS011;53450;42.584;23.366;2024-02-21T11:30:16;5.53;;;4.80;;
66593;SDS011;53450;42.584;23.366;2024-02-21T11:35:19;6.93;;;4.50;;
66593;SDS011;53450;42.584;23.366;2024-02-21T11:37:45;8.27;;;5.78;;
66593;SDS011;53450;42.584;23.366;2024-02-21T11:40:11;4.93;;;4.43;;
66593;SDS011;53450;42.584;23.366;2024-02-21T11:42:37;5.00;;;4.53;;
66593;SDS011;53450;42.584;23.366;2024-02-21T11:45:03;3.45;;;3.10;;
66593;SDS011;53450;42.584;23.366;2024-02-21T11:47:29;4.45;;;3.78;;
66593;SDS011;53450;42.584;23.366;2024-02-21T11:49:55;9.65;;;5.93;;
66593;SDS011;53450;42.584;23.366;2024-02-21T11:52:26;7.22;;;5.40;;
66593;SDS011;53450;42.584;23.366;2024-02-21T11:54:53;6.45;;;4.63;;
66593;SDS011;53450;42.584;23.366;2024-02-21T11:57:21;18.63;;;6.50;;
66593;SDS011;53450;42.584;23.366;2024-02-21T11:59:47;10.13;;;6.50;;
66593;SDS011;53450;42.584;23.366;2024-02-21T12:02:13;8.70;;;5.03;;
66593;SDS011;53450;42.584;23.366;2024-02-21T12:04:39;7.10;;;4.28;;
66593;SDS011;53450;42.584;23.366;2024-02-21T12:07:05;6.63;;;4.30;;
66593;SDS011;53450;42.584;23.366;2024-02-21T12:09:33;6.38;;;4.90;;
66593;SDS011;53450;42.584;23.366;2024-02-21T12:12:00;6.88;;;5.45;;
66593;SDS011;53450;42.584;23.366;2024-02-21T12:14:30;8.15;;;5.13;;
66593;SDS011;53450;42.584;23.366;2024-02-21T12:16:57;7.20;;;5.15;;
66593;SDS011;53450;42.584;23.366;2024-02-21T12:19:23;5.03;;;4.28;;
66593;SDS011;53450;42.584;23.366;2024-02-21T12:21:49;7.82;;;5.82;;
66593;SDS011;53450;42.584;23.366;2024-02-21T12:24:16;11.63;;;7.53;;
66593;SDS011;53450;42.584;23.366;2024-02-21T12:26:51;9.50;;;5.63;;
66593;SDS011;53450;42.584;23.366;2024-02-21T12:29:19;11.40;;;6.97;;
66593;SDS011;53450;42.584;23.366;2024-02-21T12:31:45;11.40;;;6.30;;
66593;SDS011;53450;42.584;23.366;2024-02-21T12:34:10;7.47;;;5.15;;
66593;SDS011;53450;42.584;23.366;2024-02-21T12:36:43;15.38;;;6.03;;
66593;SDS011;53450;42.584;23.366;2024-02-21T12:39:11;22.45;;;10.63;;
66593;SDS011;53450;42.584;23.366;2024-02-21T12:41:40;11.88;;;7.40;;
66593;SDS011;53450;42.584;23.366;2024-02-21T12:44:11;7.75;;;5.03;;
66593;SDS011;53450;42.584;23.366;2024-02-21T12:46:37;7.15;;;5.38;;
66593;SDS011;53450;42.584;23.366;2024-02-21T12:49:18;9.90;;;6.53;;
66593;SDS011;53450;42.584;23.366;2024-02-21T12:51:47;18.25;;;7.07;;
66593;SDS011;53450;42.584;23.366;2024-02-21T12:54:13;10.82;;;7.43;;
66593;SDS011;53450;42.584;23.366;2024-02-21T12:56:43;11.88;;;6.68;;
66593;SDS011;53450;42.584;23.366;2024-02-21T12:59:15;8.68;;;6.28;;
66593;SDS011;53450;42.584;23.366;2024-02-21T13:01:41;13.98;;;8.18;;
66593;SDS011;53450;42.584;23.366;2024-02-21T13:04:06;17.33;;;9.95;;
66593;SDS011;53450;42.584;23.366;2024-02-21T13:06:37;14.60;;;8.80;;
66593;SDS011;53450;42.584;23.366;2024-02-21T13:09:02;12.00;;;6.85;;
66593;SDS011;53450;42.584;23.366;2024-02-21T13:11:34;7.95;;;5.85;;
66593;SDS011;53450;42.584;23.366;2024-02-21T13:14:00;26.42;;;12.25;;
66593;SDS011;53450;42.584;23.366;2024-02-21T13:16:26;12.00;;;7.43;;
66593;SDS011;53450;42.584;23.366;2024-02-21T13:18:52;30.58;;;14.98;;
66593;SDS011;53450;42.584;23.366;2024-02-21T13:21:20;18.95;;;10.63;;
66593;SDS011;53450;42.584;23.366;2024-02-21T13:23:49;18.15;;;11.00;;
66593;SDS011;53450;42.584;23.366;2024-02-21T13:26:40;16.92;;;9.93;;
66593;SDS011;53450;42.584;23.366;2024-02-21T13:29:38;10.48;;;7.15;;
66593;SDS011;53450;42.584;23.366;2024-02-21T13:32:33;16.67;;;10.75;;
66593;SDS011;53450;42.584;23.366;2024-02-21T13:35:01;6.75;;;5.35;;
66593;SDS011;53450;42.584;23.366;2024-02-21T13:37:28;9.98;;;6.25;;
66593;SDS011;53450;42.584;23.366;2024-02-21T13:39:54;11.07;;;6.03;;
66593;SDS011;53450;42.584;23.366;2024-02-21T13:42:21;11.18;;;6.88;;
66593;SDS011;53450;42.584;23.366;2024-02-21T13:44:54;11.48;;;7.35;;
66593;SDS011;53450;42.584;23.366;2024-02-21T13:47:35;10.82;;;6.13;;
66593;SDS011;53450;42.584;23.366;2024-02-21T13:50:13;11.88;;;6.55;;
66593;SDS011;53450;42.584;23.366;2024-02-21T13:52:54;10.90;;;7.43;;
66593;SDS011;53450;42.584;23.366;2024-02-21T13:58:01;5.88;;;4.95;;
66593;SDS011;53450;42.584;23.366;2024-02-21T14:00:28;11.60;;;7.10;;
66593;SDS011;53450;42.584;23.366;2024-02-21T14:02:57;10.48;;;6.78;;
66593;SDS011;53450;42.584;23.366;2024-02-21T14:05:25;9.02;;;6.82;;
66593;SDS011;53450;42.584;23.366;2024-02-21T14:07:51;10.15;;;7.30;;
66593;SDS011;53450;42.584;23.366;2024-02-21T14:10:28;9.68;;;6.43;;
66593;SDS011;53450;42.584;23.366;2024-02-21T14:13:05;22.10;;;10.55;;
66593;SDS011;53450;42.584;23.366;2024-02-21T14:15:39;11.05;;;6.70;;
66593;SDS011;53450;42.584;23.366;2024-02-21T14:18:12;9.05;;;6.43;;
66593;SDS011;53450;42.584;23.366;2024-02-21T14:20:50;7.85;;;5.70;;
66593;SDS011;53450;42.584;23.366;2024-02-21T14:23:40;9.23;;;6.13;;
66593;SDS011;53450;42.584;23.366;2024-02-21T14:26:26;7.00;;;5.50;;
66593;SDS011;53450;42.584;23.366;2024-02-21T14:29:22;10.65;;;7.68;;
66593;SDS011;53450;42.584;23.366;2024-02-21T14:31:54;13.68;;;6.18;;
66593;SDS011;53450;42.584;23.366;2024-02-21T14:34:29;12.32;;;7.13;;
66593;SDS011;53450;42.584;23.366;2024-02-21T14:36:57;9.18;;;5.47;;
66593;SDS011;53450;42.584;23.366;2024-02-21T14:39:33;10.13;;;7.63;;